createdAt,value
2023-03-02T00:01:31.661Z,-0.80
2023-03-02T00:04:01.248Z,-0.80
2023-03-02T00:06:31.339Z,-0.90
2023-03-02T00:09:00.770Z,-1.00
2023-03-02T00:11:30.444Z,-1.00
2023-03-02T00:13:57.671Z,-1.00
2023-03-02T00:16:24.782Z,-1.00
2023-03-02T00:18:51.802Z,-1.00
2023-03-02T00:21:18.568Z,-1.00
2023-03-02T00:23:45.488Z,-1.00
2023-03-02T00:26:12.752Z,-1.00
2023-03-02T00:28:39.528Z,-0.90
2023-03-02T00:31:07.108Z,-1.20
2023-03-02T00:33:34.764Z,-1.30
2023-03-02T00:36:02.962Z,-1.20
2023-03-02T00:38:30.205Z,-1.20
2023-03-02T00:40:57.124Z,-1.30
2023-03-02T00:46:18.826Z,-1.20
2023-03-02T00:48:46.397Z,-1.20
2023-03-02T00:51:14.037Z,-1.20
2023-03-02T00:53:41.819Z,-1.20
2023-03-02T00:56:10.257Z,-1.10
2023-03-02T00:58:37.713Z,-1.10
2023-03-02T01:01:07.497Z,-1.20
2023-03-02T01:03:34.480Z,-1.10
2023-03-02T01:06:01.707Z,-1.10
2023-03-02T01:08:28.541Z,-1.20
2023-03-02T01:10:55.735Z,-1.20
2023-03-02T01:13:23.141Z,-1.30
2023-03-02T01:15:50.406Z,-1.30
2023-03-02T01:18:17.207Z,-1.20
2023-03-02T01:20:44.009Z,-1.20
2023-03-02T01:23:10.825Z,-1.30
2023-03-02T01:25:39.105Z,-1.30
2023-03-02T01:28:05.940Z,-1.30
2023-03-02T01:30:33.102Z,-1.30
2023-03-02T01:32:59.850Z,-1.30
2023-03-02T01:35:26.869Z,-1.40
2023-03-02T01:37:54.122Z,-1.30
2023-03-02T01:40:20.952Z,-1.30
2023-03-02T01:42:56.612Z,-1.40
2023-03-02T01:45:48.985Z,-1.40
2023-03-02T01:48:20.608Z,-1.40
2023-03-02T01:50:48.124Z,-1.40
2023-03-02T01:53:16.668Z,-1.30
2023-03-02T01:55:46.133Z,-1.40
2023-03-02T01:58:15.872Z,-1.40
2023-03-02T02:00:43.441Z,-1.40
2023-03-02T02:03:25.063Z,-1.40
2023-03-02T02:06:09.303Z,-1.40
2023-03-02T02:08:38.470Z,-1.60
2023-03-02T02:11:06.589Z,-1.70
2023-03-02T02:13:33.741Z,-1.70
2023-03-02T02:16:00.765Z,-1.60
2023-03-02T02:18:28.168Z,-1.60
2023-03-02T02:20:56.105Z,-1.60
2023-03-02T02:23:28.046Z,-1.60
2023-03-02T02:26:23.412Z,-1.60
2023-03-02T02:29:22.906Z,-1.50
2023-03-02T02:31:57.775Z,-1.50
2023-03-02T02:34:32.101Z,-1.50
2023-03-02T02:37:06.789Z,-1.60
2023-03-02T02:39:37.965Z,-1.60
2023-03-02T02:42:11.873Z,-1.60
2023-03-02T02:44:39.794Z,-1.90
2023-03-02T02:47:18.963Z,-1.90
2023-03-02T02:49:48.382Z,-1.80
2023-03-02T02:52:18.095Z,-1.70
2023-03-02T02:54:48.687Z,-1.60
2023-03-02T02:57:17.927Z,-1.60
2023-03-02T02:59:51.227Z,-1.60
2023-03-02T03:02:23.795Z,-1.60
2023-03-02T03:04:50.809Z,-1.70
2023-03-02T03:07:25.384Z,-2.10
2023-03-02T03:09:59.542Z,-2.10
2023-03-02T03:12:26.939Z,-1.90
2023-03-02T03:14:54.466Z,-1.90
2023-03-02T03:17:21.961Z,-1.80
2023-03-02T03:19:48.777Z,-1.70
2023-03-02T03:22:17.544Z,-1.70
2023-03-02T03:24:45.595Z,-1.60
2023-03-02T03:27:19.792Z,-1.70
2023-03-02T03:29:48.420Z,-1.70
2023-03-02T03:32:16.331Z,-1.80
2023-03-02T03:34:44.418Z,-1.90
2023-03-02T03:37:14.249Z,-1.80
2023-03-02T03:39:42.324Z,-1.90
2023-03-02T03:42:09.117Z,-2.00
2023-03-02T03:44:36.491Z,-2.10
2023-03-02T03:47:03.754Z,-2.20
2023-03-02T03:49:30.550Z,-2.10
2023-03-02T03:51:57.714Z,-2.00
2023-03-02T03:54:24.472Z,-2.10
2023-03-02T03:56:51.809Z,-2.10
2023-03-02T03:59:22.683Z,-2.20
2023-03-02T04:01:59.115Z,-2.10
2023-03-02T04:04:30.409Z,-2.10
2023-03-02T04:06:57.447Z,-2.10
2023-03-02T04:09:25.127Z,-2.00
2023-03-02T04:11:54.388Z,-2.10
2023-03-02T04:14:22.783Z,-2.10
2023-03-02T04:16:50.376Z,-2.10
2023-03-02T04:19:18.153Z,-2.20
2023-03-02T04:21:50.359Z,-2.20
2023-03-02T04:24:18.560Z,-2.20
2023-03-02T04:26:46.459Z,-2.20
2023-03-02T04:29:14.438Z,-2.20
2023-03-02T04:31:41.381Z,-2.20
2023-03-02T04:34:09.542Z,-2.20
2023-03-02T04:36:39.334Z,-2.20
2023-03-02T04:39:07.245Z,-2.20
2023-03-02T04:41:34.493Z,-2.20
2023-03-02T04:44:01.313Z,-2.20
2023-03-02T04:46:28.867Z,-2.20
2023-03-02T04:48:55.981Z,-2.20
2023-03-02T04:51:26.949Z,-2.10
2023-03-02T04:54:02.357Z,-2.10
2023-03-02T04:56:29.515Z,-2.20
2023-03-02T04:58:56.791Z,-2.10
2023-03-02T05:01:23.840Z,-2.20
2023-03-02T05:03:50.998Z,-2.30
2023-03-02T05:06:17.906Z,-2.20
2023-03-02T05:08:45.457Z,-2.20
2023-03-02T05:11:22.270Z,-2.20
2023-03-02T05:14:00.392Z,-2.20
2023-03-02T05:16:29.643Z,-2.70
2023-03-02T05:18:56.829Z,-2.80
2023-03-02T05:21:24.182Z,-2.60
2023-03-02T05:23:51.616Z,-2.50
2023-03-02T05:26:18.694Z,-2.50
2023-03-02T05:28:46.823Z,-2.50
2023-03-02T05:31:24.152Z,-2.60
2023-03-02T05:33:50.907Z,-2.60
2023-03-02T05:36:19.866Z,-2.50
2023-03-02T05:38:47.522Z,-2.30
2023-03-02T05:41:15.133Z,-2.30
2023-03-02T05:43:42.009Z,-2.20
2023-03-02T05:46:09.258Z,-2.10
2023-03-02T05:48:36.516Z,-2.00
2023-03-02T05:51:03.613Z,-2.40
2023-03-02T05:53:30.393Z,-2.40
2023-03-02T05:55:57.161Z,-2.30
2023-03-02T05:58:24.135Z,-2.20
2023-03-02T06:00:52.049Z,-2.10
2023-03-02T06:03:19.099Z,-1.90
2023-03-02T06:05:51.384Z,-1.90
2023-03-02T06:08:20.155Z,-1.80
2023-03-02T06:10:47.397Z,-2.00
2023-03-02T06:13:14.214Z,-2.00
2023-03-02T06:15:43.204Z,-1.80
2023-03-02T06:18:12.771Z,-1.70
2023-03-02T06:20:40.499Z,-1.60
2023-03-02T06:23:07.316Z,-1.50
2023-03-02T06:25:36.013Z,-1.60
2023-03-02T06:28:02.816Z,-1.60
2023-03-02T06:30:31.168Z,-1.20
2023-03-02T06:32:58.365Z,-0.60
2023-03-02T06:35:25.250Z,0.00
2023-03-02T06:37:54.552Z,0.60
2023-03-02T06:40:21.736Z,1.00
2023-03-02T06:42:48.637Z,1.20
2023-03-02T06:45:15.887Z,1.60
2023-03-02T06:47:42.720Z,2.00
2023-03-02T06:50:10.385Z,2.60
2023-03-02T06:52:37.651Z,3.20
2023-03-02T06:55:04.895Z,3.70
2023-03-02T06:57:34.572Z,3.80
2023-03-02T07:00:09.518Z,3.40
2023-03-02T07:02:37.173Z,3.30
2023-03-02T07:05:04.456Z,3.30
2023-03-02T07:07:31.681Z,3.10
2023-03-02T07:09:58.795Z,3.20
2023-03-02T07:12:26.011Z,3.30
2023-03-02T07:14:53.277Z,3.50
2023-03-02T07:17:20.005Z,3.70
2023-03-02T07:19:46.779Z,4.00
2023-03-02T07:22:13.566Z,4.70
2023-03-02T07:24:40.777Z,5.00
2023-03-02T07:27:07.656Z,5.40
2023-03-02T07:29:34.456Z,5.40
2023-03-02T07:32:01.337Z,5.50
2023-03-02T07:34:28.408Z,5.50
2023-03-02T07:36:55.702Z,5.90
2023-03-02T07:39:22.911Z,6.50
2023-03-02T07:41:49.735Z,7.90
2023-03-02T07:44:16.542Z,9.20
2023-03-02T07:46:43.343Z,10.30
2023-03-02T07:49:10.209Z,11.40
2023-03-02T07:51:37.432Z,12.50
2023-03-02T07:54:05.067Z,13.00
2023-03-02T07:56:32.367Z,13.40
2023-03-02T07:58:59.220Z,13.90
2023-03-02T08:01:26.439Z,14.80
2023-03-02T08:03:53.533Z,15.50
2023-03-02T08:06:20.908Z,15.60
2023-03-02T08:08:48.159Z,15.60
2023-03-02T08:11:17.463Z,15.70
2023-03-02T08:13:45.756Z,15.70
2023-03-02T08:16:15.013Z,16.30
2023-03-02T08:18:42.822Z,17.00
2023-03-02T08:21:18.752Z,17.80
2023-03-02T08:23:46.094Z,18.20
2023-03-02T08:26:17.385Z,18.40
2023-03-02T08:28:44.849Z,18.50
2023-03-02T08:31:13.842Z,17.80
2023-03-02T08:33:41.127Z,16.80
2023-03-02T08:36:12.879Z,16.50
2023-03-02T08:38:40.136Z,16.80
2023-03-02T08:41:10.800Z,16.80
2023-03-02T08:43:37.790Z,17.40
2023-03-02T08:46:05.092Z,18.10
2023-03-02T08:48:32.397Z,17.10
2023-03-02T08:51:05.632Z,16.30
2023-03-02T08:53:36.991Z,15.90
2023-03-02T08:56:04.077Z,15.50
2023-03-02T08:58:31.444Z,15.00
2023-03-02T09:00:58.668Z,15.10
2023-03-02T09:03:25.475Z,15.30
2023-03-02T09:05:52.730Z,15.80
2023-03-02T09:08:19.876Z,16.50
2023-03-02T09:10:46.661Z,15.40
2023-03-02T09:13:13.885Z,15.60
2023-03-02T09:15:40.876Z,14.30
2023-03-02T09:18:07.658Z,15.10
2023-03-02T09:20:34.775Z,15.90
2023-03-02T09:23:01.549Z,14.70
2023-03-02T09:25:28.719Z,14.00
2023-03-02T09:27:55.482Z,14.00
2023-03-02T09:30:22.295Z,13.20
2023-03-02T09:32:49.632Z,12.00
2023-03-02T09:35:16.691Z,11.10
2023-03-02T09:37:44.660Z,10.10
2023-03-02T09:40:21.882Z,9.40
2023-03-02T09:42:53.752Z,8.60
2023-03-02T09:45:20.464Z,8.20
2023-03-02T09:47:53.020Z,8.10
2023-03-02T09:50:40.645Z,7.90
2023-03-02T09:53:17.309Z,7.70
2023-03-02T09:55:48.160Z,7.70
2023-03-02T09:58:20.949Z,7.50
2023-03-02T10:00:48.736Z,7.10
2023-03-02T10:03:26.149Z,7.10
2023-03-02T10:05:55.537Z,7.20
2023-03-02T10:08:30.803Z,7.20
2023-03-02T10:11:16.724Z,7.10
2023-03-02T10:14:02.335Z,6.80
2023-03-02T10:16:48.319Z,6.70
2023-03-02T10:19:34.060Z,6.70
2023-03-02T10:22:18.078Z,6.60
2023-03-02T10:24:54.817Z,6.80
2023-03-02T10:27:33.779Z,6.60
2023-03-02T10:30:21.911Z,6.80
2023-03-02T10:32:50.926Z,6.90
2023-03-02T10:35:23.575Z,7.20
2023-03-02T10:38:12.829Z,7.40
2023-03-02T10:40:57.515Z,7.40
2023-03-02T10:43:53.215Z,7.40
2023-03-02T10:46:20.563Z,7.90
2023-03-02T10:48:59.930Z,8.20
2023-03-02T10:51:34.385Z,8.10
2023-03-02T10:54:11.392Z,8.10
2023-03-02T10:56:43.040Z,8.10
2023-03-02T10:59:29.811Z,7.90
2023-03-02T11:02:11.799Z,7.90
2023-03-02T11:04:38.698Z,7.90
2023-03-02T11:07:17.921Z,7.70
2023-03-02T11:09:57.873Z,7.60
2023-03-02T11:12:24.875Z,7.50
2023-03-02T11:15:21.590Z,7.70
2023-03-02T11:18:01.791Z,7.60
2023-03-02T11:20:33.296Z,7.50
2023-03-02T11:23:14.470Z,7.50
2023-03-02T11:25:52.433Z,7.60
2023-03-02T11:28:27.853Z,7.40
2023-03-02T11:30:57.370Z,7.40
2023-03-02T11:33:37.497Z,7.50
2023-03-02T11:36:22.782Z,7.60
2023-03-02T11:38:54.446Z,7.80
2023-03-02T11:41:30.267Z,8.00
2023-03-02T11:44:01.376Z,8.20
2023-03-02T11:46:33.951Z,7.90
2023-03-02T11:49:23.757Z,7.80
2023-03-02T11:52:00.243Z,7.60
2023-03-02T11:55:06.979Z,7.90
2023-03-02T11:57:39.599Z,7.70
2023-03-02T12:00:16.037Z,8.00
2023-03-02T12:02:43.084Z,8.10
2023-03-02T12:05:28.474Z,8.10
2023-03-02T12:08:02.119Z,7.90
2023-03-02T12:10:34.875Z,7.60
2023-03-02T12:13:10.527Z,7.40
2023-03-02T12:15:39.899Z,7.30
2023-03-02T12:18:31.930Z,7.40
2023-03-02T12:21:10.909Z,7.40
2023-03-02T12:23:51.481Z,7.50
2023-03-02T12:26:21.388Z,7.70
2023-03-02T12:29:26.291Z,7.60
2023-03-02T12:31:55.553Z,7.80
2023-03-02T12:34:35.696Z,7.70
2023-03-02T12:37:16.182Z,7.50
2023-03-02T12:40:10.837Z,7.50
2023-03-02T12:43:11.155Z,7.40
2023-03-02T12:45:50.822Z,7.40
2023-03-02T12:48:24.160Z,7.50
2023-03-02T12:50:53.190Z,7.60
2023-03-02T12:53:20.396Z,7.90
2023-03-02T12:55:47.890Z,7.90
2023-03-02T12:58:21.015Z,7.80
2023-03-02T13:00:56.975Z,7.80
2023-03-02T13:03:24.501Z,7.70
2023-03-02T13:05:51.358Z,7.70
2023-03-02T13:08:25.784Z,7.80
2023-03-02T13:10:58.267Z,7.70
2023-03-02T13:13:43.759Z,7.60
2023-03-02T13:16:24.980Z,7.60
2023-03-02T13:18:57.008Z,7.80
2023-03-02T13:21:39.142Z,7.70
2023-03-02T13:24:27.784Z,7.80
2023-03-02T13:27:04.137Z,7.60
2023-03-02T13:29:31.978Z,7.60
2023-03-02T13:32:24.105Z,7.70
2023-03-02T13:34:59.486Z,7.70
2023-03-02T13:37:40.575Z,7.80
2023-03-02T13:40:31.279Z,7.90
2023-03-02T13:42:58.436Z,7.80
2023-03-02T13:45:31.180Z,7.80
2023-03-02T13:48:00.322Z,7.90
2023-03-02T13:50:30.012Z,7.70
2023-03-02T13:52:58.825Z,7.60
2023-03-02T13:55:26.685Z,7.70
2023-03-02T13:57:54.687Z,7.70
2023-03-02T14:00:26.638Z,7.90
2023-03-02T14:02:53.821Z,7.80
2023-03-02T14:05:27.095Z,7.80
2023-03-02T14:07:54.406Z,7.80
2023-03-02T14:10:21.167Z,7.60
2023-03-02T14:13:00.499Z,7.70
2023-03-02T14:15:27.361Z,7.70
2023-03-02T14:17:54.472Z,7.70
2023-03-02T14:20:21.247Z,7.80
2023-03-02T14:22:48.901Z,7.80
2023-03-02T14:25:15.738Z,7.70
2023-03-02T14:27:43.716Z,7.50
2023-03-02T14:30:21.177Z,7.70
2023-03-02T14:32:48.473Z,7.50
2023-03-02T14:35:16.725Z,7.50
2023-03-02T14:37:47.567Z,7.60
2023-03-02T14:40:24.209Z,7.50
2023-03-02T14:42:52.267Z,7.50
2023-03-02T14:45:20.178Z,7.70
2023-03-02T14:47:48.977Z,7.70
2023-03-02T14:50:17.380Z,7.80
2023-03-02T14:52:56.615Z,7.70
2023-03-02T14:55:31.664Z,7.70
2023-03-02T14:58:32.725Z,7.50
2023-03-02T15:01:00.549Z,7.40
2023-03-02T15:03:27.588Z,7.50
2023-03-02T15:06:01.287Z,7.40
2023-03-02T15:08:29.238Z,7.60
2023-03-02T15:10:56.213Z,7.60
2023-03-02T15:13:23.006Z,7.70
2023-03-02T15:15:50.187Z,7.50
2023-03-02T15:18:19.839Z,7.70
2023-03-02T15:20:46.780Z,7.50
2023-03-02T15:23:13.674Z,7.50
2023-03-02T15:25:41.129Z,7.30
2023-03-02T15:28:07.923Z,7.30
2023-03-02T15:30:35.089Z,7.30
2023-03-02T15:33:02.282Z,7.50
2023-03-02T15:35:29.547Z,7.70
2023-03-02T15:37:58.356Z,7.60
2023-03-02T15:40:25.809Z,7.50
2023-03-02T15:42:53.164Z,7.20
2023-03-02T15:45:20.098Z,7.00
2023-03-02T15:47:46.980Z,6.90
2023-03-02T15:50:14.197Z,7.00
2023-03-02T15:52:42.067Z,7.00
2023-03-02T15:55:09.594Z,7.20
2023-03-02T15:57:38.346Z,7.40
2023-03-02T16:00:06.323Z,7.30
2023-03-02T16:02:33.331Z,7.20
2023-03-02T16:05:00.149Z,7.10
2023-03-02T16:07:27.260Z,7.10
2023-03-02T16:09:54.042Z,6.70
2023-03-02T16:12:23.727Z,6.60
2023-03-02T16:14:50.533Z,6.70
2023-03-02T16:17:21.197Z,6.50
2023-03-02T16:19:47.989Z,6.40
2023-03-02T16:22:15.113Z,6.30
2023-03-02T16:24:42.079Z,6.10
2023-03-02T16:27:11.090Z,6.00
2023-03-02T16:29:40.603Z,5.90
2023-03-02T16:32:09.124Z,5.70
2023-03-02T16:34:36.593Z,5.50
2023-03-02T16:37:03.673Z,5.40
2023-03-02T16:39:33.256Z,5.30
2023-03-02T16:42:00.224Z,5.20
2023-03-02T16:44:29.636Z,5.20
2023-03-02T16:46:57.751Z,5.20
2023-03-02T16:49:25.165Z,5.00
2023-03-02T16:51:57.966Z,4.80
2023-03-02T16:54:27.000Z,4.60
2023-03-02T16:56:55.149Z,4.40
2023-03-02T16:59:22.074Z,4.40
2023-03-02T17:01:48.899Z,4.30
2023-03-02T17:04:18.391Z,4.20
2023-03-02T17:06:59.781Z,4.20
2023-03-02T17:09:27.933Z,4.20
2023-03-02T17:11:55.396Z,4.10
2023-03-02T17:14:22.150Z,4.00
2023-03-02T17:16:48.932Z,4.00
2023-03-02T17:19:16.121Z,3.90
2023-03-02T17:21:43.766Z,3.90
2023-03-02T17:24:11.190Z,3.70
2023-03-02T17:26:38.044Z,3.80
2023-03-02T17:29:06.554Z,3.70
2023-03-02T17:31:33.648Z,3.60
2023-03-02T17:34:00.886Z,3.60
2023-03-02T17:36:28.941Z,3.60
2023-03-02T17:38:55.760Z,3.50
2023-03-02T17:41:22.901Z,3.40
2023-03-02T17:43:49.655Z,3.30
2023-03-02T17:46:25.289Z,3.30
2023-03-02T17:48:57.421Z,3.30
2023-03-02T17:51:25.497Z,3.40
2023-03-02T17:53:53.440Z,3.30
2023-03-02T17:56:24.381Z,3.40
2023-03-02T17:59:00.670Z,3.50
2023-03-02T18:01:28.473Z,3.30
2023-03-02T18:03:56.020Z,3.10
2023-03-02T18:06:23.183Z,3.00
2023-03-02T18:08:51.693Z,2.90
2023-03-02T18:11:21.409Z,2.80
2023-03-02T18:13:49.086Z,2.90
2023-03-02T18:16:16.601Z,2.80
2023-03-02T18:18:43.412Z,2.90
2023-03-02T18:21:10.938Z,2.80
2023-03-02T18:23:38.178Z,2.50
2023-03-02T18:26:05.493Z,2.50
2023-03-02T18:28:36.118Z,2.60
2023-03-02T18:31:05.408Z,2.40
2023-03-02T18:33:32.529Z,2.40
2023-03-02T18:36:01.014Z,2.30
2023-03-02T18:38:30.924Z,2.30
2023-03-02T18:41:03.761Z,2.20
2023-03-02T18:43:35.762Z,2.20
2023-03-02T18:46:07.277Z,2.20
2023-03-02T18:48:34.769Z,2.20
2023-03-02T18:51:01.568Z,2.00
2023-03-02T18:53:30.348Z,2.00
2023-03-02T18:55:57.231Z,2.00
2023-03-02T18:58:25.710Z,2.00
2023-03-02T19:00:54.349Z,1.80
2023-03-02T19:03:22.886Z,1.90
2023-03-02T19:05:49.667Z,1.80
2023-03-02T19:08:17.753Z,1.80
2023-03-02T19:10:44.526Z,1.80
2023-03-02T19:13:11.858Z,1.70
2023-03-02T19:15:40.306Z,1.80
2023-03-02T19:18:09.397Z,1.80
2023-03-02T19:20:37.275Z,1.70
2023-03-02T19:23:04.068Z,1.80
2023-03-02T19:25:30.868Z,1.80
2023-03-02T19:27:59.122Z,1.80
2023-03-02T19:30:28.607Z,1.80
2023-03-02T19:32:55.458Z,1.80
2023-03-02T19:35:25.709Z,1.80
2023-03-02T19:37:53.069Z,1.70
2023-03-02T19:40:22.164Z,1.70
2023-03-02T19:42:49.759Z,1.70
2023-03-02T19:45:29.979Z,1.70
2023-03-02T19:47:57.990Z,1.80
2023-03-02T19:50:26.170Z,2.00
2023-03-02T19:52:54.816Z,1.80
2023-03-02T19:55:24.314Z,1.60
2023-03-02T19:57:57.057Z,1.70
2023-03-02T20:00:24.279Z,1.60
2023-03-02T20:02:52.478Z,1.70
2023-03-02T20:05:19.644Z,1.80
2023-03-02T20:07:46.479Z,1.80
2023-03-02T20:10:26.470Z,1.80
2023-03-02T20:12:53.321Z,1.60
2023-03-02T20:15:20.255Z,1.80
2023-03-02T20:17:47.126Z,1.80
2023-03-02T20:20:14.348Z,1.70
2023-03-02T20:22:41.117Z,1.60
2023-03-02T20:25:09.198Z,1.60
2023-03-02T20:27:35.967Z,1.50
2023-03-02T20:30:05.703Z,1.50
2023-03-02T20:32:32.562Z,1.50
2023-03-02T20:34:59.420Z,1.70
2023-03-02T20:37:26.491Z,2.00
2023-03-02T20:39:53.563Z,2.10
2023-03-02T20:42:20.426Z,2.10
2023-03-02T20:44:47.470Z,2.00
2023-03-02T20:47:16.351Z,2.00
2023-03-02T20:49:43.877Z,1.90
2023-03-02T20:52:11.047Z,1.90
2023-03-02T20:54:41.293Z,2.00
2023-03-02T20:57:09.185Z,1.80
2023-03-02T20:59:38.076Z,1.80
2023-03-02T21:02:05.656Z,1.70
2023-03-02T21:04:35.721Z,1.60
2023-03-02T21:07:03.216Z,1.60
2023-03-02T21:09:30.681Z,1.70
2023-03-02T21:11:58.850Z,1.60
2023-03-02T21:14:31.155Z,1.60
2023-03-02T21:16:58.923Z,1.60
2023-03-02T21:19:26.068Z,1.60
2023-03-02T21:21:54.734Z,1.60
2023-03-02T21:24:22.069Z,1.60
2023-03-02T21:26:51.997Z,1.60
2023-03-02T21:29:21.064Z,1.70
2023-03-02T21:31:48.994Z,1.80
2023-03-02T21:34:18.886Z,1.70
2023-03-02T21:36:46.736Z,2.00
2023-03-02T21:39:14.495Z,2.10
2023-03-02T21:41:41.312Z,2.30
2023-03-02T21:44:08.188Z,2.60
2023-03-02T21:46:36.874Z,2.90
2023-03-02T21:49:04.150Z,3.00
2023-03-02T21:51:31.383Z,3.00
2023-03-02T21:53:58.346Z,2.90
2023-03-02T21:56:27.120Z,3.00
2023-03-02T21:58:56.655Z,3.10
2023-03-02T22:01:24.473Z,3.30
2023-03-02T22:03:51.653Z,3.50
2023-03-02T22:06:24.628Z,3.40
2023-03-02T22:08:53.663Z,3.20
2023-03-02T22:11:27.268Z,3.00
2023-03-02T22:13:58.990Z,2.70
2023-03-02T22:16:28.857Z,2.70
2023-03-02T22:18:58.235Z,2.50
2023-03-02T22:21:25.370Z,2.50
2023-03-02T22:24:17.784Z,2.70
2023-03-02T22:26:57.415Z,2.80
2023-03-02T22:29:26.161Z,3.00
2023-03-02T22:31:56.175Z,3.00
2023-03-02T22:34:29.651Z,3.20
2023-03-02T22:37:09.997Z,3.30
2023-03-02T22:39:37.128Z,3.60
2023-03-02T22:42:12.930Z,3.40
2023-03-02T22:44:39.753Z,3.30
2023-03-02T22:47:19.138Z,3.30
2023-03-02T22:49:47.113Z,3.30
2023-03-02T22:52:17.948Z,3.40
2023-03-02T22:54:45.666Z,3.10
2023-03-02T22:57:35.758Z,2.90
2023-03-02T23:00:11.873Z,2.80
2023-03-02T23:02:42.649Z,2.70
2023-03-02T23:05:29.572Z,2.50
2023-03-02T23:08:17.213Z,2.50
2023-03-02T23:10:45.686Z,2.50
2023-03-02T23:13:18.337Z,2.80
2023-03-02T23:15:47.202Z,2.80
2023-03-02T23:18:26.040Z,2.70
2023-03-02T23:20:53.728Z,2.80
2023-03-02T23:23:22.859Z,2.50
2023-03-02T23:25:50.998Z,2.60
2023-03-02T23:28:17.751Z,2.80
2023-03-02T23:30:45.349Z,3.10
2023-03-02T23:33:12.132Z,2.70
2023-03-02T23:35:40.311Z,2.60
2023-03-02T23:38:07.133Z,2.40
2023-03-02T23:40:35.033Z,2.40
2023-03-02T23:43:02.205Z,2.30
2023-03-02T23:45:29.460Z,2.10
2023-03-02T23:47:57.698Z,2.30
2023-03-02T23:50:24.567Z,2.40
2023-03-02T23:52:51.699Z,2.60
2023-03-02T23:55:18.854Z,2.80
2023-03-02T23:57:45.671Z,2.90
